createdAt,value
2023-05-21T00:01:25.986Z,23.85
2023-05-21T00:03:53.340Z,24.30
2023-05-21T00:06:21.162Z,22.25
2023-05-21T00:08:48.585Z,24.55
2023-05-21T00:11:15.308Z,22.02
2023-05-21T00:13:42.732Z,23.92
2023-05-21T00:16:11.402Z,22.35
2023-05-21T00:18:39.320Z,22.67
2023-05-21T00:21:06.636Z,22.75
2023-05-21T00:23:34.312Z,23.27
2023-05-21T00:26:01.168Z,23.67
2023-05-21T00:28:28.502Z,24.50
2023-05-21T00:30:55.431Z,22.45
2023-05-21T00:33:26.621Z,26.17
2023-05-21T00:35:53.531Z,25.67
2023-05-21T00:38:22.281Z,22.58
2023-05-21T00:40:49.356Z,27.92
2023-05-21T00:43:16.982Z,26.95
2023-05-21T00:45:47.373Z,26.88
2023-05-21T00:48:15.037Z,30.17
2023-05-21T00:50:42.400Z,21.02
2023-05-21T00:53:12.462Z,20.73
2023-05-21T00:55:39.903Z,21.77
2023-05-21T00:58:08.333Z,21.55
2023-05-21T01:00:36.253Z,23.95
2023-05-21T01:03:05.068Z,23.25
2023-05-21T01:05:32.390Z,23.67
2023-05-21T01:08:03.293Z,25.92
2023-05-21T01:10:30.739Z,22.73
2023-05-21T01:12:59.491Z,22.83
2023-05-21T01:15:27.292Z,20.25
2023-05-21T01:17:56.071Z,25.40
2023-05-21T01:20:24.258Z,28.55
2023-05-21T01:22:56.064Z,24.23
2023-05-21T01:25:24.787Z,25.98
2023-05-21T01:27:52.667Z,25.20
2023-05-21T01:30:22.084Z,23.90
2023-05-21T01:33:01.997Z,28.40
2023-05-21T01:35:50.351Z,23.02
2023-05-21T01:38:24.718Z,20.30
2023-05-21T01:40:58.567Z,21.70
2023-05-21T01:43:29.454Z,24.40
2023-05-21T01:45:57.264Z,19.85
2023-05-21T01:48:27.380Z,25.60
2023-05-21T01:50:57.576Z,19.52
2023-05-21T01:53:25.283Z,22.65
2023-05-21T01:55:52.201Z,24.55
2023-05-21T01:58:21.369Z,19.10
2023-05-21T02:00:50.867Z,16.98
2023-05-21T02:03:20.422Z,18.60
2023-05-21T02:05:47.371Z,21.58
2023-05-21T02:08:19.881Z,17.58
2023-05-21T02:10:46.559Z,17.07
2023-05-21T02:13:13.885Z,20.33
2023-05-21T02:15:40.586Z,16.00
2023-05-21T02:18:08.685Z,19.52
2023-05-21T02:20:36.519Z,15.77
2023-05-21T02:23:03.791Z,16.67
2023-05-21T02:25:30.554Z,19.50
2023-05-21T02:27:57.882Z,16.20
2023-05-21T02:30:24.578Z,18.25
2023-05-21T02:32:51.588Z,15.43
2023-05-21T02:35:18.281Z,16.60
2023-05-21T02:37:45.722Z,15.77
2023-05-21T02:40:13.006Z,15.90
2023-05-21T02:42:41.616Z,13.80
2023-05-21T02:45:12.695Z,15.45
2023-05-21T02:47:42.440Z,16.13
2023-05-21T02:50:09.605Z,14.15
2023-05-21T02:52:44.115Z,17.13
2023-05-21T02:55:10.970Z,15.75
2023-05-21T02:57:38.366Z,15.70
2023-05-21T03:00:06.071Z,17.25
2023-05-21T03:02:33.664Z,13.25
2023-05-21T03:05:00.709Z,13.25
2023-05-21T03:07:27.999Z,16.45
2023-05-21T03:09:54.882Z,14.30
2023-05-21T03:12:22.299Z,18.20
2023-05-21T03:14:51.256Z,15.10
2023-05-21T03:17:20.786Z,14.98
2023-05-21T03:19:48.976Z,13.95
2023-05-21T03:22:16.513Z,14.35
2023-05-21T03:24:45.064Z,12.35
2023-05-21T03:27:13.167Z,17.70
2023-05-21T03:29:39.953Z,15.45
2023-05-21T03:32:08.365Z,14.50
2023-05-21T03:34:35.550Z,16.85
2023-05-21T03:37:03.158Z,15.07
2023-05-21T03:39:31.055Z,17.92
2023-05-21T03:41:59.126Z,14.15
2023-05-21T03:44:35.508Z,14.32
2023-05-21T03:47:29.181Z,15.13
2023-05-21T03:49:57.123Z,14.32
2023-05-21T03:52:24.215Z,14.98
2023-05-21T03:54:50.938Z,14.68
2023-05-21T03:57:18.307Z,13.35
2023-05-21T03:59:46.422Z,15.00
2023-05-21T04:02:14.903Z,13.32
2023-05-21T04:04:43.251Z,15.70
2023-05-21T04:07:14.775Z,16.63
2023-05-21T04:09:42.001Z,18.15
2023-05-21T04:12:09.154Z,19.63
2023-05-21T04:14:40.363Z,19.58
2023-05-21T04:17:07.727Z,13.60
2023-05-21T04:19:34.954Z,12.43
2023-05-21T04:22:03.897Z,14.00
2023-05-21T04:24:31.145Z,15.68
2023-05-21T04:27:10.177Z,14.13
2023-05-21T04:29:37.645Z,13.73
2023-05-21T04:32:05.461Z,15.30
2023-05-21T04:34:34.680Z,13.25
2023-05-21T04:37:02.569Z,14.07
2023-05-21T04:39:31.415Z,20.13
2023-05-21T04:41:58.763Z,16.25
2023-05-21T04:44:26.158Z,13.23
2023-05-21T04:46:55.007Z,17.02
2023-05-21T04:49:21.871Z,12.18
2023-05-21T04:51:52.153Z,13.38
2023-05-21T04:54:19.107Z,17.20
2023-05-21T04:56:47.685Z,17.23
2023-05-21T04:59:16.661Z,18.65
2023-05-21T05:01:44.143Z,13.25
2023-05-21T05:04:10.935Z,16.38
2023-05-21T05:06:38.334Z,17.77
2023-05-21T05:09:05.571Z,13.52
2023-05-21T05:11:33.062Z,18.48
2023-05-21T05:13:59.799Z,15.98
2023-05-21T05:16:28.223Z,19.75
2023-05-21T05:18:56.933Z,17.40
2023-05-21T05:21:24.360Z,13.45
2023-05-21T05:23:51.255Z,17.45
2023-05-21T05:26:21.880Z,14.38
2023-05-21T05:28:49.231Z,13.88
2023-05-21T05:31:16.944Z,15.05
2023-05-21T05:33:44.063Z,15.00
2023-05-21T05:36:12.063Z,14.25
2023-05-21T05:38:38.860Z,13.95
2023-05-21T05:41:06.488Z,13.60
2023-05-21T05:43:33.254Z,21.10
2023-05-21T05:46:01.428Z,16.25
2023-05-21T05:48:28.581Z,13.18
2023-05-21T05:50:57.386Z,21.73
2023-05-21T05:53:25.814Z,18.63
2023-05-21T05:55:54.022Z,14.27
2023-05-21T05:58:20.783Z,22.25
2023-05-21T06:00:57.731Z,20.73
2023-05-21T06:03:25.284Z,14.98
2023-05-21T06:05:53.928Z,18.08
2023-05-21T06:08:20.738Z,17.35
2023-05-21T06:10:48.087Z,14.45
2023-05-21T06:13:15.093Z,20.05
2023-05-21T06:15:43.565Z,15.98
2023-05-21T06:18:11.328Z,15.70
2023-05-21T06:20:38.921Z,16.58
2023-05-21T06:23:07.192Z,15.52
2023-05-21T06:25:35.016Z,14.32
2023-05-21T06:28:02.108Z,16.08
2023-05-21T06:30:30.807Z,14.40
2023-05-21T06:32:57.614Z,16.73
2023-05-21T06:35:25.346Z,13.75
2023-05-21T06:37:52.122Z,15.73
2023-05-21T06:40:20.813Z,16.30
2023-05-21T06:42:48.274Z,16.40
2023-05-21T06:45:21.454Z,14.40
2023-05-21T06:47:51.782Z,12.95
2023-05-21T06:50:18.734Z,16.25
2023-05-21T06:52:46.226Z,13.52
2023-05-21T06:55:13.778Z,16.25
2023-05-21T06:58:02.376Z,16.55
2023-05-21T07:00:30.526Z,22.13
2023-05-21T07:02:58.401Z,14.15
2023-05-21T07:05:25.670Z,21.17
2023-05-21T07:07:54.904Z,18.42
2023-05-21T07:10:21.741Z,14.00
2023-05-21T07:12:49.012Z,15.10
2023-05-21T07:15:15.709Z,17.83
2023-05-21T07:17:43.612Z,15.10
2023-05-21T07:20:11.497Z,20.13
2023-05-21T07:22:43.325Z,14.55
2023-05-21T07:25:11.733Z,15.82
2023-05-21T07:27:39.034Z,16.13
2023-05-21T07:30:06.402Z,16.52
2023-05-21T07:32:33.826Z,16.80
2023-05-21T07:35:03.660Z,16.83
2023-05-21T07:37:31.919Z,20.92
2023-05-21T07:39:59.307Z,17.77
2023-05-21T07:42:26.683Z,23.58
2023-05-21T07:44:56.045Z,13.75
2023-05-21T07:47:24.538Z,20.90
2023-05-21T07:49:51.700Z,18.17
2023-05-21T07:52:19.173Z,20.05
2023-05-21T07:54:45.933Z,16.20
2023-05-21T07:57:13.104Z,15.93
2023-05-21T08:00:01.178Z,17.67
2023-05-21T08:02:30.693Z,15.30
2023-05-21T08:04:59.180Z,23.40
2023-05-21T08:07:26.508Z,19.02
2023-05-21T08:09:54.669Z,22.40
2023-05-21T08:12:21.448Z,20.95
2023-05-21T08:14:48.971Z,17.75
2023-05-21T08:17:16.810Z,16.42
2023-05-21T08:19:44.353Z,20.80
2023-05-21T08:22:11.075Z,18.58
2023-05-21T08:24:41.813Z,22.80
2023-05-21T08:27:08.504Z,18.00
2023-05-21T08:29:35.671Z,20.73
2023-05-21T08:32:03.451Z,20.63
2023-05-21T08:34:30.580Z,17.60
2023-05-21T08:37:10.536Z,17.83
2023-05-21T08:40:01.064Z,18.80
2023-05-21T08:42:41.022Z,27.35
2023-05-21T08:45:11.031Z,21.63
2023-05-21T08:47:38.780Z,20.23
2023-05-21T08:50:11.090Z,20.55
2023-05-21T08:52:38.441Z,20.92
2023-05-21T08:55:06.135Z,20.73
2023-05-21T08:57:34.843Z,17.48
2023-05-21T09:00:04.542Z,18.42
2023-05-21T09:02:35.612Z,21.40
2023-05-21T09:05:04.411Z,17.33
2023-05-21T09:07:34.657Z,17.90
2023-05-21T09:12:54.576Z,18.73
2023-05-21T09:15:21.927Z,22.65
2023-05-21T09:17:49.244Z,20.33
2023-05-21T09:20:39.028Z,19.10
2023-05-21T09:23:12.497Z,25.90
2023-05-21T09:25:39.880Z,18.65
2023-05-21T09:28:13.491Z,25.20
2023-05-21T09:30:53.905Z,18.80
2023-05-21T09:33:31.774Z,27.35
2023-05-21T09:35:58.567Z,19.70
2023-05-21T09:38:27.471Z,21.75
2023-05-21T09:40:56.864Z,20.02
2023-05-21T09:43:25.602Z,18.98
2023-05-21T09:45:55.678Z,21.70
2023-05-21T09:48:44.824Z,22.75
2023-05-21T09:51:17.370Z,24.90
2023-05-21T09:53:47.465Z,19.98
2023-05-21T09:56:14.184Z,24.65
2023-05-21T09:58:41.288Z,22.50
2023-05-21T10:01:10.370Z,22.50
2023-05-21T10:03:41.039Z,21.95
2023-05-21T10:06:12.098Z,20.65
2023-05-21T10:08:44.794Z,20.83
2023-05-21T10:11:12.178Z,22.10
2023-05-21T10:13:45.412Z,22.65
2023-05-21T10:18:41.478Z,23.10
2023-05-21T10:21:08.548Z,24.13
2023-05-21T10:23:38.005Z,22.55
2023-05-21T10:26:06.907Z,22.02
2023-05-21T10:28:35.102Z,20.70
2023-05-21T10:31:02.336Z,26.38
2023-05-21T10:33:29.932Z,23.52
2023-05-21T10:35:59.395Z,20.98
2023-05-21T10:38:27.970Z,24.65
2023-05-21T10:40:56.051Z,21.80
2023-05-21T10:43:44.881Z,20.38
2023-05-21T10:46:43.350Z,20.58
2023-05-21T10:49:45.058Z,22.52
2023-05-21T10:52:37.096Z,20.65
2023-05-21T10:55:17.018Z,29.00
2023-05-21T10:57:47.465Z,24.35
2023-05-21T11:00:18.405Z,24.13
2023-05-21T11:02:46.318Z,26.42
2023-05-21T11:05:13.480Z,28.02
2023-05-21T11:08:00.572Z,22.83
2023-05-21T11:10:36.601Z,24.30
2023-05-21T11:13:15.283Z,23.65
2023-05-21T11:15:57.590Z,23.23
2023-05-21T11:18:44.897Z,22.70
2023-05-21T11:21:14.113Z,23.33
2023-05-21T11:24:02.480Z,28.40
2023-05-21T11:26:49.942Z,26.15
2023-05-21T11:29:18.307Z,21.25
2023-05-21T11:32:12.904Z,24.52
2023-05-21T11:34:45.997Z,30.20
2023-05-21T11:37:27.126Z,29.08
2023-05-21T11:39:54.509Z,26.25
2023-05-21T11:42:38.941Z,24.45
2023-05-21T11:45:06.287Z,25.58
2023-05-21T11:47:33.636Z,30.80
2023-05-21T11:50:04.588Z,21.30
2023-05-21T11:52:33.337Z,25.73
2023-05-21T11:55:00.205Z,28.33
2023-05-21T11:57:31.369Z,23.85
2023-05-21T12:00:02.226Z,23.90
2023-05-21T12:02:44.481Z,24.75
2023-05-21T12:05:13.161Z,24.90
2023-05-21T12:07:40.670Z,30.48
2023-05-21T12:10:08.059Z,25.00
2023-05-21T12:12:46.068Z,26.48
2023-05-21T12:15:21.049Z,23.23
2023-05-21T12:17:51.324Z,28.27
2023-05-21T12:20:18.076Z,27.52
2023-05-21T12:22:45.298Z,26.67
2023-05-21T12:25:12.652Z,26.30
2023-05-21T12:27:39.869Z,22.95
2023-05-21T12:30:08.574Z,25.38
2023-05-21T12:32:35.466Z,23.40
2023-05-21T12:35:03.000Z,24.20
2023-05-21T12:37:35.414Z,30.17
2023-05-21T12:42:35.042Z,26.03
2023-05-21T12:45:07.583Z,27.17
2023-05-21T12:47:34.487Z,23.42
2023-05-21T12:50:03.565Z,24.20
2023-05-21T12:52:33.518Z,25.75
2023-05-21T12:55:01.198Z,27.88
2023-05-21T12:57:35.574Z,27.63
2023-05-21T13:00:09.282Z,29.10
2023-05-21T13:02:44.823Z,22.95
2023-05-21T13:05:20.469Z,28.02
2023-05-21T13:07:47.899Z,26.40
2023-05-21T13:10:17.057Z,24.00
2023-05-21T13:12:44.948Z,20.17
2023-05-21T13:15:12.964Z,23.25
2023-05-21T13:17:39.710Z,26.02
2023-05-21T13:20:12.443Z,25.10
2023-05-21T13:22:51.225Z,23.42
2023-05-21T13:25:29.660Z,26.13
2023-05-21T13:27:57.722Z,23.33
2023-05-21T13:30:24.376Z,25.73
2023-05-21T13:32:52.095Z,22.85
2023-05-21T13:35:19.257Z,28.80
2023-05-21T13:37:46.602Z,21.00
2023-05-21T13:40:15.664Z,21.02
2023-05-21T13:42:48.616Z,32.13
2023-05-21T13:45:17.903Z,18.42
2023-05-21T13:47:47.926Z,24.23
2023-05-21T13:50:15.436Z,20.52
2023-05-21T13:52:42.730Z,20.73
2023-05-21T13:55:10.565Z,22.88
2023-05-21T13:57:38.010Z,20.95
2023-05-21T14:00:06.270Z,20.63
2023-05-21T14:02:34.773Z,20.98
2023-05-21T14:05:01.644Z,22.30
2023-05-21T14:07:28.668Z,23.17
2023-05-21T14:09:56.274Z,21.70
2023-05-21T14:12:23.034Z,21.02
2023-05-21T14:14:51.965Z,21.50
2023-05-21T14:17:18.737Z,20.23
2023-05-21T14:19:45.683Z,19.27
2023-05-21T14:22:12.404Z,22.08
2023-05-21T14:24:39.766Z,17.75
2023-05-21T14:27:06.424Z,22.40
2023-05-21T14:29:33.820Z,20.95
2023-05-21T14:32:00.585Z,22.02
2023-05-21T14:34:28.009Z,26.52
2023-05-21T14:36:54.724Z,24.40
2023-05-21T14:39:22.007Z,21.80
2023-05-21T14:41:48.743Z,20.98
2023-05-21T14:44:16.401Z,21.25
2023-05-21T14:46:43.085Z,22.15
2023-05-21T14:49:12.082Z,22.10
2023-05-21T14:51:38.705Z,22.13
2023-05-21T14:54:06.091Z,19.80
2023-05-21T14:56:32.822Z,20.65
2023-05-21T14:59:00.157Z,24.65
2023-05-21T15:01:26.912Z,19.63
2023-05-21T15:03:56.291Z,21.27
2023-05-21T15:06:23.019Z,26.25
2023-05-21T15:08:50.469Z,25.02
2023-05-21T15:11:17.103Z,18.15
2023-05-21T15:13:44.348Z,18.92
2023-05-21T15:16:11.027Z,24.10
2023-05-21T15:18:39.460Z,24.23
2023-05-21T15:21:06.244Z,22.05
2023-05-21T15:23:33.518Z,25.83
2023-05-21T15:26:00.273Z,23.15
2023-05-21T15:28:27.589Z,19.33
2023-05-21T15:30:54.229Z,22.75
2023-05-21T15:33:21.523Z,23.00
2023-05-21T15:35:48.364Z,23.75
2023-05-21T15:38:15.838Z,23.88
2023-05-21T15:40:42.664Z,21.98
2023-05-21T15:43:10.075Z,21.15
2023-05-21T15:45:38.473Z,23.30
2023-05-21T15:48:06.614Z,21.75
2023-05-21T15:50:35.394Z,21.58
2023-05-21T15:53:03.990Z,19.17
2023-05-21T15:55:34.068Z,25.65
2023-05-21T15:58:02.510Z,21.73
2023-05-21T16:00:29.401Z,27.15
2023-05-21T16:02:56.376Z,20.15
2023-05-21T16:05:23.113Z,27.88
2023-05-21T16:07:50.473Z,27.08
2023-05-21T16:10:17.305Z,20.30
2023-05-21T16:12:44.658Z,21.10
2023-05-21T16:15:11.466Z,25.02
2023-05-21T16:17:38.809Z,19.48
2023-05-21T16:20:06.686Z,22.08
2023-05-21T16:22:33.988Z,19.88
2023-05-21T16:25:00.643Z,20.58
2023-05-21T16:27:27.935Z,18.20
2023-05-21T16:29:54.613Z,17.92
2023-05-21T16:32:22.096Z,21.17
2023-05-21T16:34:49.001Z,25.20
2023-05-21T16:37:16.328Z,19.35
2023-05-21T16:39:42.967Z,22.33
2023-05-21T16:42:10.276Z,21.65
2023-05-21T16:44:37.782Z,19.17
2023-05-21T16:47:05.507Z,21.02
2023-05-21T16:49:32.171Z,23.52
2023-05-21T16:51:59.457Z,18.75
2023-05-21T16:54:27.093Z,21.60
2023-05-21T16:56:55.205Z,20.77
2023-05-21T16:59:21.881Z,21.52
2023-05-21T17:01:49.206Z,19.73
2023-05-21T17:04:15.955Z,17.45
2023-05-21T17:06:43.223Z,20.10
2023-05-21T17:09:09.870Z,16.15
2023-05-21T17:11:37.171Z,19.60
2023-05-21T17:14:03.856Z,18.25
2023-05-21T17:16:31.332Z,20.55
2023-05-21T17:18:58.053Z,19.65
2023-05-21T17:21:26.653Z,21.02
2023-05-21T17:23:53.297Z,21.17
2023-05-21T17:26:21.937Z,19.00
2023-05-21T17:28:48.568Z,18.65
2023-05-21T17:31:16.544Z,22.38
2023-05-21T17:33:43.441Z,18.55
2023-05-21T17:36:10.898Z,27.33
2023-05-21T17:38:37.523Z,17.85
2023-05-21T17:41:05.295Z,24.38
2023-05-21T17:43:32.073Z,17.15
2023-05-21T17:45:59.497Z,22.88
2023-05-21T17:48:26.360Z,16.40
2023-05-21T17:50:53.722Z,18.23
2023-05-21T17:53:20.496Z,18.23
2023-05-21T17:55:47.782Z,20.65
2023-05-21T17:58:14.456Z,22.80
2023-05-21T18:00:41.806Z,20.88
2023-05-21T18:03:08.556Z,19.52
2023-05-21T18:05:36.695Z,20.02
2023-05-21T18:08:04.011Z,17.00
2023-05-21T18:10:31.308Z,17.60
2023-05-21T18:12:57.971Z,21.02
2023-05-21T18:15:25.463Z,21.38
2023-05-21T18:17:52.173Z,22.02
2023-05-21T18:20:19.493Z,16.58
2023-05-21T18:22:46.187Z,21.52
2023-05-21T18:25:13.543Z,20.20
2023-05-21T18:27:40.270Z,18.58
2023-05-21T18:30:08.425Z,19.42
2023-05-21T18:32:38.237Z,21.55
2023-05-21T18:35:10.700Z,21.67
2023-05-21T18:37:38.677Z,26.27
2023-05-21T18:40:07.589Z,18.13
2023-05-21T18:42:34.303Z,18.45
2023-05-21T18:45:07.541Z,20.70
2023-05-21T18:47:34.657Z,23.70
2023-05-21T18:50:01.906Z,18.15
2023-05-21T18:52:28.610Z,17.95
2023-05-21T18:54:56.150Z,19.42
2023-05-21T18:57:23.893Z,18.73
2023-05-21T18:59:51.187Z,18.98
2023-05-21T19:02:19.500Z,18.40
2023-05-21T19:04:46.879Z,21.02
2023-05-21T19:07:15.811Z,23.75
2023-05-21T19:09:42.842Z,19.73
2023-05-21T19:12:09.626Z,25.55
2023-05-21T19:14:36.664Z,19.27
2023-05-21T19:17:03.380Z,20.85
2023-05-21T19:19:30.941Z,21.50
2023-05-21T19:21:58.104Z,23.02
2023-05-21T19:24:25.533Z,21.33
2023-05-21T19:26:52.169Z,22.27
2023-05-21T19:29:19.126Z,22.95
2023-05-21T19:31:45.962Z,26.75
2023-05-21T19:34:13.057Z,24.55
2023-05-21T19:36:52.367Z,24.35
2023-05-21T19:39:21.372Z,23.75
2023-05-21T19:41:48.190Z,22.38
2023-05-21T19:44:14.996Z,21.40
2023-05-21T19:46:41.935Z,22.88
2023-05-21T19:49:10.883Z,19.38
2023-05-21T19:51:38.257Z,20.58
2023-05-21T19:54:04.941Z,23.63
2023-05-21T19:56:31.590Z,23.30
2023-05-21T19:58:58.248Z,25.02
2023-05-21T20:01:25.525Z,24.88
2023-05-21T20:03:52.300Z,24.98
2023-05-21T20:06:20.943Z,23.08
2023-05-21T20:08:47.851Z,25.33
2023-05-21T20:11:15.206Z,27.55
2023-05-21T20:13:42.193Z,29.10
2023-05-21T20:16:10.752Z,24.75
2023-05-21T20:18:37.469Z,25.42
2023-05-21T20:21:06.037Z,24.55
2023-05-21T20:23:32.682Z,26.60
2023-05-21T20:25:59.653Z,29.38
2023-05-21T20:28:26.299Z,25.95
2023-05-21T20:30:59.086Z,27.67
2023-05-21T20:33:27.733Z,28.38
2023-05-21T20:35:55.046Z,32.50
2023-05-21T20:38:21.943Z,25.95
2023-05-21T20:40:48.925Z,26.77
2023-05-21T20:43:15.645Z,30.17
2023-05-21T20:45:43.507Z,27.70
2023-05-21T20:48:11.800Z,31.50
2023-05-21T20:50:41.098Z,32.67
2023-05-21T20:53:08.475Z,27.98
2023-05-21T20:55:35.821Z,26.58
2023-05-21T20:58:03.624Z,30.88
2023-05-21T21:00:33.666Z,32.50
2023-05-21T21:03:03.589Z,27.17
2023-05-21T21:05:31.161Z,33.05
2023-05-21T21:08:02.432Z,27.83
2023-05-21T21:10:29.533Z,27.65
2023-05-21T21:12:56.182Z,31.25
2023-05-21T21:15:23.477Z,32.35
2023-05-21T21:17:50.152Z,34.75
2023-05-21T21:20:18.815Z,33.75
2023-05-21T21:22:45.956Z,34.08
2023-05-21T21:25:16.139Z,33.35
2023-05-21T21:27:43.903Z,29.70
2023-05-21T21:30:10.950Z,36.90
2023-05-21T21:32:38.338Z,42.75
2023-05-21T21:35:05.847Z,30.23
2023-05-21T21:37:33.163Z,30.58
2023-05-21T21:39:59.824Z,33.35
2023-05-21T21:42:27.135Z,30.63
2023-05-21T21:44:53.780Z,31.77
2023-05-21T21:47:21.069Z,28.50
2023-05-21T21:49:47.994Z,31.13
2023-05-21T21:52:16.799Z,29.98
2023-05-21T21:54:43.484Z,26.77
2023-05-21T21:57:10.752Z,29.67
2023-05-21T21:59:38.315Z,29.75
2023-05-21T22:02:06.355Z,28.55
2023-05-21T22:04:33.095Z,30.85
2023-05-21T22:07:01.836Z,29.65
2023-05-21T22:09:28.648Z,28.88
2023-05-21T22:11:56.331Z,29.95
2023-05-21T22:14:23.762Z,32.55
2023-05-21T22:16:52.883Z,33.80
2023-05-21T22:19:22.282Z,28.80
2023-05-21T22:21:49.797Z,28.20
2023-05-21T22:24:31.030Z,35.95
2023-05-21T22:26:59.651Z,30.80
2023-05-21T22:29:26.303Z,31.13
2023-05-21T22:31:53.269Z,26.15
2023-05-21T22:34:20.462Z,31.20
2023-05-21T22:36:47.245Z,34.95
2023-05-21T22:39:14.336Z,34.17
2023-05-21T22:41:41.148Z,32.28
2023-05-21T22:44:08.413Z,29.45
2023-05-21T22:46:38.344Z,38.75
2023-05-21T22:49:06.485Z,32.08
2023-05-21T22:51:34.302Z,32.60
2023-05-21T22:54:01.953Z,29.55
2023-05-21T22:56:29.084Z,27.27
2023-05-21T22:58:56.835Z,26.20
2023-05-21T23:01:23.890Z,28.77
2023-05-21T23:03:51.717Z,27.02
2023-05-21T23:06:18.603Z,26.67
2023-05-21T23:08:46.095Z,25.95
2023-05-21T23:11:12.795Z,24.48
2023-05-21T23:13:40.094Z,25.50
2023-05-21T23:16:07.287Z,24.55
2023-05-21T23:18:35.570Z,23.88
2023-05-21T23:21:02.394Z,25.05
2023-05-21T23:23:29.917Z,24.23
2023-05-21T23:25:58.733Z,24.92
2023-05-21T23:28:26.693Z,22.30
2023-05-21T23:30:53.402Z,24.92
2023-05-21T23:33:20.821Z,23.33
2023-05-21T23:35:47.529Z,24.83
2023-05-21T23:38:14.839Z,25.15
2023-05-21T23:40:41.825Z,23.88
2023-05-21T23:43:09.135Z,20.30
2023-05-21T23:45:35.823Z,18.98
2023-05-21T23:48:03.477Z,21.77
2023-05-21T23:50:30.182Z,18.92
2023-05-21T23:52:57.481Z,16.15
2023-05-21T23:55:24.158Z,19.02
2023-05-21T23:57:51.666Z,15.55
